EZY68CG EGGD-LEMI
Flight info
| Callsign | EZY68CG |
|---|---|
| Flight time | N/A |
| Altitude | 35000 |
| Route | EXMOR N40 SIDHO DCT TONQU DCT MANIG DCT BADUR DCT KORER DCT NORMI DCT UVUDO DCT UTISO DCT OSMOB DCT TBO DCT PERDU DCT POSSY DCT XIMPE DCT RIMES DCT SAURA DCT TATOS DCT PLANA DCT VLC L34 ALT |
| Aircraft | A320/M-SDE2E3FGHIJ1RWXYZ/LB1 |
Departure
| Time | N/A |
|---|---|
| Airport | Bristol Airport (EGGD) |
Arrival
| Time | 2026-04-25 13:38 |
|---|---|
| Airport | Region of Murcia International Airport (LEMI) |
| Time | Latitude | Longitude | Altitude | Speed | Heading |
|---|---|---|---|---|---|
| 2026-04-25 12:35 | 43.24389 | 0.14635 | 35175 ft | 422 kts | 181° |
| 2026-04-25 12:35 | 43.18511 | 0.14695 | 35168 ft | 422 kts | 181° |
| 2026-04-25 12:36 | 43.12636 | 0.14749 | 35167 ft | 422 kts | 181° |
| 2026-04-25 12:36 | 43.06760 | 0.14805 | 35170 ft | 422 kts | 181° |
| 2026-04-25 12:37 | 43.00888 | 0.14858 | 35159 ft | 422 kts | 181° |
| 2026-04-25 12:37 | 42.95036 | 0.14917 | 35263 ft | 426 kts | 181° |
| 2026-04-25 12:37 | 42.92065 | 0.14945 | 35439 ft | 427 kts | 181° |
| 2026-04-25 12:38 | 42.89089 | 0.14970 | 35637 ft | 427 kts | 181° |
| 2026-04-25 12:38 | 42.86120 | 0.14996 | 35875 ft | 427 kts | 181° |
| 2026-04-25 12:38 | 42.83150 | 0.15021 | 36109 ft | 426 kts | 181° |
| 2026-04-25 12:38 | 42.80189 | 0.15049 | 36355 ft | 425 kts | 181° |
| 2026-04-25 12:39 | 42.78228 | 0.15066 | 36519 ft | 425 kts | 181° |
| 2026-04-25 12:39 | 42.74283 | 0.15096 | 36796 ft | 424 kts | 181° |
| 2026-04-25 12:39 | 42.71338 | 0.15116 | 36984 ft | 423 kts | 181° |
| 2026-04-25 12:39 | 42.68399 | 0.15137 | 37134 ft | 423 kts | 181° |
| 2026-04-25 12:40 | 42.65454 | 0.15162 | 37154 ft | 423 kts | 181° |
| 2026-04-25 12:40 | 42.59576 | 0.15219 | 37139 ft | 423 kts | 181° |
| 2026-04-25 12:41 | 42.53679 | 0.15277 | 37141 ft | 424 kts | 181° |
| 2026-04-25 12:41 | 42.47786 | 0.15334 | 37136 ft | 424 kts | 181° |
| 2026-04-25 12:42 | 42.41888 | 0.15392 | 37125 ft | 424 kts | 181° |
| 2026-04-25 12:42 | 42.35992 | 0.15440 | 37116 ft | 424 kts | 181° |
| 2026-04-25 12:43 | 42.30092 | 0.15494 | 37117 ft | 424 kts | 180° |
| 2026-04-25 12:43 | 42.21240 | 0.15572 | 37111 ft | 424 kts | 181° |
| 2026-04-25 12:44 | 42.15380 | 0.15625 | 37099 ft | 424 kts | 180° |
| 2026-04-25 12:45 | 42.06526 | 0.15695 | 37096 ft | 424 kts | 183° |
| 2026-04-25 12:45 | 41.97730 | 0.14431 | 37091 ft | 424 kts | 187° |
| 2026-04-25 12:46 | 41.91858 | 0.13562 | 37093 ft | 424 kts | 187° |
| 2026-04-25 12:46 | 41.85990 | 0.12701 | 37093 ft | 425 kts | 187° |
| 2026-04-25 12:47 | 41.80111 | 0.11830 | 37092 ft | 425 kts | 187° |
| 2026-04-25 12:47 | 41.74226 | 0.10948 | 37095 ft | 425 kts | 187° |
| 2026-04-25 12:48 | 41.68351 | 0.10075 | 37097 ft | 425 kts | 187° |
| 2026-04-25 12:48 | 41.62476 | 0.09203 | 37097 ft | 425 kts | 187° |
| 2026-04-25 12:49 | 41.56598 | 0.08330 | 37097 ft | 425 kts | 187° |
| 2026-04-25 12:49 | 41.50725 | 0.07448 | 37098 ft | 425 kts | 187° |
| 2026-04-25 12:50 | 41.44850 | 0.06571 | 37100 ft | 425 kts | 187° |
| 2026-04-25 12:50 | 41.39012 | 0.05711 | 37102 ft | 424 kts | 187° |
| 2026-04-25 12:51 | 41.33139 | 0.04854 | 37102 ft | 424 kts | 186° |
| 2026-04-25 12:51 | 41.27271 | 0.03996 | 37105 ft | 424 kts | 186° |
| 2026-04-25 12:52 | 41.21411 | 0.03133 | 37105 ft | 424 kts | 186° |
| 2026-04-25 12:52 | 41.15546 | 0.02277 | 37107 ft | 424 kts | 186° |
| 2026-04-25 12:53 | 41.09689 | 0.01417 | 37112 ft | 423 kts | 186° |
| 2026-04-25 12:53 | 41.03836 | 0.00559 | 37112 ft | 423 kts | 186° |
| 2026-04-25 12:54 | 40.97988 | -0.00299 | 37113 ft | 423 kts | 186° |
| 2026-04-25 12:54 | 40.92138 | -0.01145 | 37112 ft | 422 kts | 186° |
| 2026-04-25 12:55 | 40.87286 | -0.01849 | 37115 ft | 422 kts | 186° |
| 2026-04-25 12:55 | 40.80499 | -0.02836 | 37113 ft | 422 kts | 186° |
| 2026-04-25 12:56 | 40.74655 | -0.03682 | 37113 ft | 421 kts | 186° |
| 2026-04-25 12:56 | 40.68817 | -0.04522 | 37113 ft | 422 kts | 186° |
| 2026-04-25 12:57 | 40.62978 | -0.05369 | 37113 ft | 421 kts | 186° |
| 2026-04-25 12:57 | 40.57182 | -0.06199 | 37109 ft | 421 kts | 187° |
| 2026-04-25 12:58 | 40.51506 | -0.08100 | 37111 ft | 421 kts | 197° |
| 2026-04-25 12:58 | 40.45896 | -0.10336 | 37112 ft | 421 kts | 196° |
| 2026-04-25 12:59 | 40.40282 | -0.12558 | 37115 ft | 421 kts | 196° |
| 2026-04-25 12:59 | 40.34676 | -0.14767 | 37115 ft | 421 kts | 196° |
| 2026-04-25 13:00 | 40.30928 | -0.16242 | 37112 ft | 420 kts | 196° |
| 2026-04-25 13:00 | 40.23470 | -0.19182 | 37112 ft | 420 kts | 195° |
| 2026-04-25 13:01 | 40.17870 | -0.21377 | 37114 ft | 420 kts | 195° |
| 2026-04-25 13:01 | 40.12268 | -0.23581 | 37118 ft | 420 kts | 195° |
| 2026-04-25 13:02 | 40.06664 | -0.25780 | 37131 ft | 420 kts | 195° |
| 2026-04-25 13:02 | 40.01061 | -0.27971 | 37134 ft | 421 kts | 195° |
| 2026-04-25 13:03 | 39.96400 | -0.29790 | 37130 ft | 421 kts | 195° |
| 2026-04-25 13:03 | 39.90787 | -0.31975 | 37126 ft | 421 kts | 195° |
| 2026-04-25 13:04 | 39.84259 | -0.34508 | 37127 ft | 421 kts | 195° |
| 2026-04-25 13:04 | 39.79551 | -0.36339 | 37132 ft | 421 kts | 195° |
| 2026-04-25 13:05 | 39.73931 | -0.38516 | 37134 ft | 421 kts | 195° |
| 2026-04-25 13:05 | 39.68350 | -0.40679 | 37134 ft | 421 kts | 195° |
| 2026-04-25 13:06 | 39.62698 | -0.42864 | 37135 ft | 421 kts | 195° |
| 2026-04-25 13:06 | 39.57123 | -0.45016 | 37145 ft | 421 kts | 195° |
| 2026-04-25 13:07 | 39.51503 | -0.47175 | 37138 ft | 421 kts | 195° |
| 2026-04-25 13:07 | 39.45775 | -0.48512 | 37135 ft | 418 kts | 181° |
| 2026-04-25 13:08 | 39.39964 | -0.48923 | 37132 ft | 418 kts | 182° |
| 2026-04-25 13:08 | 39.34152 | -0.49352 | 37129 ft | 419 kts | 182° |
| 2026-04-25 13:09 | 39.28323 | -0.49780 | 37116 ft | 420 kts | 182° |
| 2026-04-25 13:09 | 39.22487 | -0.50196 | 37116 ft | 420 kts | 182° |
| 2026-04-25 13:10 | 39.16645 | -0.50618 | 37119 ft | 421 kts | 182° |
| 2026-04-25 13:10 | 39.10789 | -0.51039 | 37123 ft | 421 kts | 182° |
| 2026-04-25 13:11 | 39.04926 | -0.51461 | 37104 ft | 422 kts | 182° |
| 2026-04-25 13:11 | 38.99097 | -0.51881 | 37110 ft | 423 kts | 182° |
| 2026-04-25 13:12 | 38.93225 | -0.52306 | 37122 ft | 423 kts | 182° |
| 2026-04-25 13:12 | 38.88296 | -0.52663 | 37127 ft | 423 kts | 182° |
| 2026-04-25 13:13 | 38.81463 | -0.53149 | 37133 ft | 423 kts | 182° |
| 2026-04-25 13:13 | 38.75591 | -0.53561 | 37131 ft | 423 kts | 182° |
| 2026-04-25 13:14 | 38.69722 | -0.53983 | 37133 ft | 422 kts | 182° |
| 2026-04-25 13:14 | 38.63855 | -0.54402 | 37138 ft | 422 kts | 182° |
| 2026-04-25 13:15 | 38.57981 | -0.54817 | 37122 ft | 422 kts | 182° |
| 2026-04-25 13:15 | 38.52109 | -0.55229 | 37143 ft | 423 kts | 182° |
| 2026-04-25 13:16 | 38.46235 | -0.55637 | 37135 ft | 422 kts | 182° |
| 2026-04-25 13:16 | 38.40369 | -0.56051 | 36972 ft | 423 kts | 182° |
| 2026-04-25 13:17 | 38.37434 | -0.56263 | 36706 ft | 422 kts | 182° |
| 2026-04-25 13:17 | 38.34516 | -0.56475 | 36263 ft | 418 kts | 182° |
| 2026-04-25 13:17 | 38.31624 | -0.56686 | 35754 ft | 415 kts | 182° |
| 2026-04-25 13:17 | 38.28787 | -0.56893 | 35254 ft | 412 kts | 182° |
| 2026-04-25 13:18 | 38.25892 | -0.56994 | 34710 ft | 410 kts | 176° |
| 2026-04-25 13:18 | 38.23077 | -0.56849 | 34186 ft | 409 kts | 176° |
| 2026-04-25 13:18 | 38.20241 | -0.56705 | 33602 ft | 407 kts | 176° |
| 2026-04-25 13:18 | 38.17413 | -0.56565 | 33072 ft | 405 kts | 175° |
| 2026-04-25 13:19 | 38.14601 | -0.56427 | 32540 ft | 403 kts | 175° |
| 2026-04-25 13:19 | 38.11804 | -0.56289 | 32004 ft | 402 kts | 175° |
| 2026-04-25 13:19 | 38.09014 | -0.56155 | 31486 ft | 400 kts | 175° |
| 2026-04-25 13:19 | 38.07177 | -0.56067 | 31144 ft | 398 kts | 175° |
| 2026-04-25 13:20 | 38.03485 | -0.55891 | 30453 ft | 396 kts | 175° |
| 2026-04-25 13:20 | 38.00738 | -0.55760 | 29904 ft | 394 kts | 175° |
| 2026-04-25 13:20 | 37.98016 | -0.55628 | 29392 ft | 390 kts | 175° |
| 2026-04-25 13:20 | 37.95323 | -0.55497 | 28898 ft | 386 kts | 175° |
| 2026-04-25 13:21 | 37.92649 | -0.55368 | 28405 ft | 383 kts | 175° |
| 2026-04-25 13:21 | 37.89999 | -0.55240 | 27928 ft | 380 kts | 175° |
| 2026-04-25 13:21 | 37.87359 | -0.55114 | 27447 ft | 378 kts | 175° |
| 2026-04-25 13:21 | 37.84731 | -0.54988 | 26988 ft | 384 kts | 175° |
| 2026-04-25 13:22 | 37.82020 | -0.54858 | 26536 ft | 391 kts | 175° |
| 2026-04-25 13:22 | 37.79300 | -0.54837 | 26086 ft | 393 kts | 184° |
| 2026-04-25 13:22 | 37.76665 | -0.55754 | 25649 ft | 396 kts | 204° |
| 2026-04-25 13:23 | 37.72493 | -0.60267 | 24502 ft | 403 kts | 226° |
| 2026-04-25 13:23 | 37.70620 | -0.62917 | 23933 ft | 404 kts | 226° |
| 2026-04-25 13:23 | 37.68756 | -0.65575 | 23288 ft | 404 kts | 227° |
| 2026-04-25 13:23 | 37.66896 | -0.68223 | 22638 ft | 404 kts | 226° |
| 2026-04-25 13:24 | 37.65024 | -0.70877 | 21973 ft | 404 kts | 226° |
| 2026-04-25 13:24 | 37.63165 | -0.73527 | 21333 ft | 403 kts | 226° |
| 2026-04-25 13:24 | 37.61367 | -0.76235 | 20697 ft | 404 kts | 234° |
| 2026-04-25 13:24 | 37.60183 | -0.79453 | 20086 ft | 406 kts | 255° |
| 2026-04-25 13:25 | 37.59681 | -0.82959 | 19490 ft | 406 kts | 261° |
| 2026-04-25 13:25 | 37.59293 | -0.86482 | 18902 ft | 405 kts | 261° |
| 2026-04-25 13:25 | 37.58913 | -0.89953 | 18298 ft | 394 kts | 261° |
| 2026-04-25 13:25 | 37.58542 | -0.93322 | 17633 ft | 381 kts | 261° |
| 2026-04-25 13:26 | 37.58192 | -0.96586 | 16985 ft | 371 kts | 261° |
| 2026-04-25 13:26 | 37.57861 | -0.99777 | 16249 ft | 364 kts | 261° |
| 2026-04-25 13:26 | 37.57540 | -1.02919 | 15505 ft | 358 kts | 261° |
| 2026-04-25 13:26 | 37.57228 | -1.06008 | 14775 ft | 352 kts | 262° |
| 2026-04-25 13:27 | 37.56917 | -1.09048 | 14072 ft | 347 kts | 261° |
| 2026-04-25 13:27 | 37.56625 | -1.12009 | 13310 ft | 343 kts | 261° |
| 2026-04-25 13:27 | 37.56343 | -1.14972 | 12634 ft | 337 kts | 262° |
| 2026-04-25 13:27 | 37.56045 | -1.17875 | 11997 ft | 331 kts | 261° |
| 2026-04-25 13:28 | 37.55734 | -1.20729 | 11375 ft | 326 kts | 261° |
| 2026-04-25 13:28 | 37.55642 | -1.21683 | 11171 ft | 323 kts | 265° |
| 2026-04-25 13:28 | 37.56504 | -1.26094 | 10179 ft | 313 kts | 307° |
| 2026-04-25 13:28 | 37.57903 | -1.28152 | 9541 ft | 307 kts | 315° |
| 2026-04-25 13:29 | 37.59372 | -1.30076 | 8891 ft | 303 kts | 316° |
| 2026-04-25 13:29 | 37.60825 | -1.31954 | 8366 ft | 295 kts | 316° |
| 2026-04-25 13:29 | 37.62245 | -1.33803 | 7863 ft | 293 kts | 317° |
| 2026-04-25 13:30 | 37.65013 | -1.37504 | 7030 ft | 283 kts | 313° |
| 2026-04-25 13:30 | 37.65969 | -1.39615 | 6672 ft | 277 kts | 286° |
| 2026-04-25 13:30 | 37.66040 | -1.42000 | 6364 ft | 272 kts | 256° |
| 2026-04-25 13:31 | 37.63725 | -1.45453 | 5864 ft | 264 kts | 198° |
| 2026-04-25 13:31 | 37.61934 | -1.45712 | 5615 ft | 259 kts | 165° |
| 2026-04-25 13:31 | 37.60397 | -1.44677 | 5473 ft | 248 kts | 127° |
| 2026-04-25 13:31 | 37.59751 | -1.42782 | 5446 ft | 235 kts | 90° |
| 2026-04-25 13:32 | 37.60194 | -1.40873 | 5419 ft | 229 kts | 57° |
| 2026-04-25 13:32 | 37.61233 | -1.39360 | 5390 ft | 228 kts | 46° |
| 2026-04-25 13:32 | 37.62417 | -1.38062 | 5370 ft | 230 kts | 40° |
| 2026-04-25 13:32 | 37.63666 | -1.36806 | 5346 ft | 229 kts | 44° |
| 2026-04-25 13:33 | 37.64808 | -1.35403 | 5109 ft | 229 kts | 49° |
| 2026-04-25 13:33 | 37.65862 | -1.33922 | 4814 ft | 225 kts | 52° |
| 2026-04-25 13:33 | 37.66861 | -1.32426 | 4517 ft | 220 kts | 51° |
| 2026-04-25 13:33 | 37.67514 | -1.31424 | 4326 ft | 219 kts | 52° |
| 2026-04-25 13:34 | 37.68776 | -1.29459 | 3949 ft | 216 kts | 52° |
| 2026-04-25 13:34 | 37.69715 | -1.27984 | 3648 ft | 215 kts | 51° |
| 2026-04-25 13:34 | 37.70643 | -1.26525 | 3382 ft | 212 kts | 51° |
| 2026-04-25 13:34 | 37.71559 | -1.25077 | 3086 ft | 209 kts | 52° |
| 2026-04-25 13:35 | 37.72461 | -1.23657 | 2816 ft | 203 kts | 51° |
| 2026-04-25 13:35 | 37.73351 | -1.22343 | 2535 ft | 191 kts | 50° |
| 2026-04-25 13:35 | 37.74221 | -1.21094 | 2283 ft | 185 kts | 48° |
| 2026-04-25 13:35 | 37.75037 | -1.19922 | 2015 ft | 172 kts | 49° |
| 2026-04-25 13:36 | 37.75686 | -1.18726 | 1783 ft | 158 kts | 60° |
| 2026-04-25 13:36 | 37.76256 | -1.17627 | 1642 ft | 142 kts | 48° |
| 2026-04-25 13:36 | 37.76926 | -1.16730 | 1433 ft | 139 kts | 43° |
| 2026-04-25 13:36 | 37.77600 | -1.15882 | 1253 ft | 137 kts | 42° |
| 2026-04-25 13:37 | 37.78273 | -1.15065 | 1049 ft | 134 kts | 43° |
| 2026-04-25 13:37 | 37.78947 | -1.14226 | 831 ft | 135 kts | 45° |
| 2026-04-25 13:37 | 37.79605 | -1.13379 | 658 ft | 133 kts | 44° |
| 2026-04-25 13:37 | 37.80171 | -1.12656 | 645 ft | 99 kts | 45° |
| 2026-04-25 13:38 | 37.80598 | -1.12107 | 646 ft | 78 kts | 45° |
| 2026-04-25 13:38 | 37.80943 | -1.11662 | 646 ft | 62 kts | 46° |
| 2026-04-25 13:38 | 37.81174 | -1.11369 | 649 ft | 30 kts | 45° |
| 2026-04-25 13:38 | 37.81265 | -1.11304 | 647 ft | 11 kts | 337° |
| 2026-04-25 13:39 | 37.81315 | -1.11360 | 649 ft | 8 kts | 315° |
| 2026-04-25 13:39 | 37.81339 | -1.11438 | 650 ft | 14 kts | 262° |
| 2026-04-25 13:39 | 37.81264 | -1.11558 | 653 ft | 21 kts | 225° |
| 2026-04-25 13:39 | 37.81138 | -1.11722 | 650 ft | 30 kts | 225° |
| 2026-04-25 13:40 | 37.80990 | -1.11910 | 647 ft | 29 kts | 225° |
| 2026-04-25 13:40 | 37.80846 | -1.12096 | 648 ft | 30 kts | 226° |
| 2026-04-25 13:40 | 37.80697 | -1.12288 | 650 ft | 30 kts | 225° |
| 2026-04-25 13:40 | 37.80553 | -1.12474 | 649 ft | 25 kts | 225° |
| 2026-04-25 13:41 | 37.80458 | -1.12596 | 649 ft | 16 kts | 226° |
| 2026-04-25 13:41 | 37.80397 | -1.12683 | 648 ft | 11 kts | 244° |
| 2026-04-25 13:41 | 37.80426 | -1.12762 | 647 ft | 10 kts | 315° |
| 2026-04-25 13:41 | 37.80452 | -1.12831 | 647 ft | 8 kts | 264° |
| 2026-04-25 13:42 | 37.80425 | -1.12888 | 647 ft | 8 kts | 227° |
| 2026-04-25 13:42 | 37.80386 | -1.12940 | 647 ft | 8 kts | 226° |
| 2026-04-25 13:42 | 37.80364 | -1.12990 | 647 ft | 6 kts | 278° |
| 2026-04-25 13:42 | 37.80385 | -1.13023 | 647 ft | 4 kts | 315° |
| 2026-04-25 13:43 | 37.80401 | -1.13043 | 647 ft | 2 kts | 315° |
| 2026-04-25 13:43 | 37.80407 | -1.13051 | 647 ft | 0 kts | 315° |